sensor_id;sensor_type;location;lat;lon;timestamp;temperature;humidity
1129;DHT22;553;51.038;7.216;2023-03-23T00:01:19;12.80;99.90
1129;DHT22;553;51.038;7.216;2023-03-23T00:03:47;12.80;99.90
1129;DHT22;553;51.038;7.216;2023-03-23T00:06:13;12.90;99.90
1129;DHT22;553;51.038;7.216;2023-03-23T00:08:47;12.90;99.90
1129;DHT22;553;51.038;7.216;2023-03-23T00:11:17;12.90;99.90
1129;DHT22;553;51.038;7.216;2023-03-23T00:13:45;12.90;99.90
1129;DHT22;553;51.038;7.216;2023-03-23T00:16:12;12.90;99.90
1129;DHT22;553;51.038;7.216;2023-03-23T00:18:49;12.80;99.90
1129;DHT22;553;51.038;7.216;2023-03-23T00:21:18;12.80;99.90
1129;DHT22;553;51.038;7.216;2023-03-23T00:23:44;12.80;99.90
1129;DHT22;553;51.038;7.216;2023-03-23T00:26:11;12.80;99.90
1129;DHT22;553;51.038;7.216;2023-03-23T00:28:36;12.80;99.90
1129;DHT22;553;51.038;7.216;2023-03-23T00:31:06;12.90;99.90
1129;DHT22;553;51.038;7.216;2023-03-23T00:33:38;12.90;99.90
1129;DHT22;553;51.038;7.216;2023-03-23T00:36:07;12.90;99.90
1129;DHT22;553;51.038;7.216;2023-03-23T00:38:35;12.90;99.90
1129;DHT22;553;51.038;7.216;2023-03-23T00:41:01;12.90;99.90
1129;DHT22;553;51.038;7.216;2023-03-23T00:43:28;12.90;99.90
1129;DHT22;553;51.038;7.216;2023-03-23T00:45:56;12.90;99.90
1129;DHT22;553;51.038;7.216;2023-03-23T00:48:23;12.90;99.90
1129;DHT22;553;51.038;7.216;2023-03-23T00:50:49;12.90;99.90
1129;DHT22;553;51.038;7.216;2023-03-23T00:53:17;13.00;99.90
1129;DHT22;553;51.038;7.216;2023-03-23T00:55:48;12.90;99.90
1129;DHT22;553;51.038;7.216;2023-03-23T00:58:15;12.90;99.90
1129;DHT22;553;51.038;7.216;2023-03-23T01:00:41;12.90;99.90
1129;DHT22;553;51.038;7.216;2023-03-23T01:03:09;12.90;99.90
1129;DHT22;553;51.038;7.216;2023-03-23T01:05:39;12.90;99.90
1129;DHT22;553;51.038;7.216;2023-03-23T01:08:05;12.90;99.90
1129;DHT22;553;51.038;7.216;2023-03-23T01:10:32;12.90;99.90
1129;DHT22;553;51.038;7.216;2023-03-23T01:12:59;12.90;99.90
1129;DHT22;553;51.038;7.216;2023-03-23T01:15:26;12.90;99.90
1129;DHT22;553;51.038;7.216;2023-03-23T01:17:52;12.90;99.90
1129;DHT22;553;51.038;7.216;2023-03-23T01:20:18;12.90;99.90
1129;DHT22;553;51.038;7.216;2023-03-23T01:22:45;12.90;99.90
1129;DHT22;553;51.038;7.216;2023-03-23T01:25:12;12.80;99.90
1129;DHT22;553;51.038;7.216;2023-03-23T01:27:39;12.90;99.90
1129;DHT22;553;51.038;7.216;2023-03-23T01:30:07;12.90;99.90
1129;DHT22;553;51.038;7.216;2023-03-23T01:32:34;12.80;99.90
1129;DHT22;553;51.038;7.216;2023-03-23T01:35:00;12.70;99.90
1129;DHT22;553;51.038;7.216;2023-03-23T01:37:26;12.60;99.90
1129;DHT22;553;51.038;7.216;2023-03-23T01:39:54;12.50;99.90
1129;DHT22;553;51.038;7.216;2023-03-23T01:42:25;12.50;99.90
1129;DHT22;553;51.038;7.216;2023-03-23T01:47:20;12.50;99.90
1129;DHT22;553;51.038;7.216;2023-03-23T01:49:49;12.40;99.90
1129;DHT22;553;51.038;7.216;2023-03-23T01:52:22;12.40;99.90
1129;DHT22;553;51.038;7.216;2023-03-23T01:54:52;12.40;99.90
1129;DHT22;553;51.038;7.216;2023-03-23T01:57:19;12.30;99.90
1129;DHT22;553;51.038;7.216;2023-03-23T01:59:50;12.20;99.90
1129;DHT22;553;51.038;7.216;2023-03-23T02:02:24;12.20;99.90
1129;DHT22;553;51.038;7.216;2023-03-23T02:04:51;12.10;99.90
1129;DHT22;553;51.038;7.216;2023-03-23T02:07:21;12.10;99.90
1129;DHT22;553;51.038;7.216;2023-03-23T02:09:50;12.10;99.90
1129;DHT22;553;51.038;7.216;2023-03-23T02:12:17;12.10;99.90
1129;DHT22;553;51.038;7.216;2023-03-23T02:14:43;12.10;99.90
1129;DHT22;553;51.038;7.216;2023-03-23T02:17:24;12.00;99.90
1129;DHT22;553;51.038;7.216;2023-03-23T02:20:06;12.00;99.90
1129;DHT22;553;51.038;7.216;2023-03-23T02:30:39;11.90;99.90
1129;DHT22;553;51.038;7.216;2023-03-23T02:33:27;11.90;99.90
1129;DHT22;553;51.038;7.216;2023-03-23T02:36:05;11.70;99.90
1129;DHT22;553;51.038;7.216;2023-03-23T02:41:03;11.60;99.90
1129;DHT22;553;51.038;7.216;2023-03-23T02:43:33;11.60;99.90
1129;DHT22;553;51.038;7.216;2023-03-23T02:46:01;11.50;99.90
1129;DHT22;553;51.038;7.216;2023-03-23T02:48:32;11.50;99.90
1129;DHT22;553;51.038;7.216;2023-03-23T02:51:00;11.50;99.90
1129;DHT22;553;51.038;7.216;2023-03-23T02:53:28;11.40;99.90
1129;DHT22;553;51.038;7.216;2023-03-23T02:55:55;11.40;99.90
1129;DHT22;553;51.038;7.216;2023-03-23T02:58:25;11.40;99.90
1129;DHT22;553;51.038;7.216;2023-03-23T03:00:54;11.40;99.90
1129;DHT22;553;51.038;7.216;2023-03-23T03:03:24;11.40;99.90
1129;DHT22;553;51.038;7.216;2023-03-23T03:06:11;11.40;99.90
1129;DHT22;553;51.038;7.216;2023-03-23T03:08:50;11.40;99.90
1129;DHT22;553;51.038;7.216;2023-03-23T03:11:20;11.30;99.90
1129;DHT22;553;51.038;7.216;2023-03-23T03:13:55;11.30;99.90
1129;DHT22;553;51.038;7.216;2023-03-23T03:21:52;11.20;99.90
1129;DHT22;553;51.038;7.216;2023-03-23T03:24:27;11.20;99.90
1129;DHT22;553;51.038;7.216;2023-03-23T03:26:55;11.30;99.90
1129;DHT22;553;51.038;7.216;2023-03-23T03:29:44;11.30;99.90
1129;DHT22;553;51.038;7.216;2023-03-23T03:32:14;11.30;99.90
1129;DHT22;553;51.038;7.216;2023-03-23T03:34:42;11.30;99.90
1129;DHT22;553;51.038;7.216;2023-03-23T03:37:10;11.40;99.90
1129;DHT22;553;51.038;7.216;2023-03-23T03:39:37;11.40;99.90
1129;DHT22;553;51.038;7.216;2023-03-23T03:42:04;11.40;99.90
1129;DHT22;553;51.038;7.216;2023-03-23T03:44:32;11.40;99.90
1129;DHT22;553;51.038;7.216;2023-03-23T03:46:57;11.40;99.90
1129;DHT22;553;51.038;7.216;2023-03-23T03:49:23;11.40;99.90
1129;DHT22;553;51.038;7.216;2023-03-23T03:51:49;11.50;99.90
1129;DHT22;553;51.038;7.216;2023-03-23T03:54:22;11.40;99.90
1129;DHT22;553;51.038;7.216;2023-03-23T03:56:48;11.40;99.90
1129;DHT22;553;51.038;7.216;2023-03-23T03:59:33;11.40;99.90
1129;DHT22;553;51.038;7.216;2023-03-23T04:02:23;11.50;99.90
1129;DHT22;553;51.038;7.216;2023-03-23T04:04:51;11.40;99.90
1129;DHT22;553;51.038;7.216;2023-03-23T04:07:19;11.40;99.90
1129;DHT22;553;51.038;7.216;2023-03-23T04:09:47;11.40;99.90
1129;DHT22;553;51.038;7.216;2023-03-23T04:12:15;11.40;99.90
1129;DHT22;553;51.038;7.216;2023-03-23T04:14:56;11.30;99.90
1129;DHT22;553;51.038;7.216;2023-03-23T04:17:27;11.30;99.90
1129;DHT22;553;51.038;7.216;2023-03-23T04:19:54;11.30;99.90
1129;DHT22;553;51.038;7.216;2023-03-23T04:22:23;11.20;99.90
1129;DHT22;553;51.038;7.216;2023-03-23T04:24:57;11.30;99.90
1129;DHT22;553;51.038;7.216;2023-03-23T04:27:26;11.30;99.90
1129;DHT22;553;51.038;7.216;2023-03-23T04:29:55;11.30;99.90
1129;DHT22;553;51.038;7.216;2023-03-23T04:32:53;11.40;99.90
1129;DHT22;553;51.038;7.216;2023-03-23T04:35:25;11.30;99.90
1129;DHT22;553;51.038;7.216;2023-03-23T04:38:03;11.30;99.90
1129;DHT22;553;51.038;7.216;2023-03-23T04:40:29;11.30;99.90
1129;DHT22;553;51.038;7.216;2023-03-23T04:43:15;11.30;99.90
1129;DHT22;553;51.038;7.216;2023-03-23T04:45:59;11.30;99.90
1129;DHT22;553;51.038;7.216;2023-03-23T04:48:29;11.30;99.90
1129;DHT22;553;51.038;7.216;2023-03-23T04:51:06;11.30;99.90
1129;DHT22;553;51.038;7.216;2023-03-23T04:53:33;11.30;99.90
1129;DHT22;553;51.038;7.216;2023-03-23T04:56:00;11.30;99.90
1129;DHT22;553;51.038;7.216;2023-03-23T04:58:31;11.30;99.90
1129;DHT22;553;51.038;7.216;2023-03-23T05:01:17;11.20;99.90
1129;DHT22;553;51.038;7.216;2023-03-23T05:04:00;11.30;99.90
1129;DHT22;553;51.038;7.216;2023-03-23T05:06:26;11.30;99.90
1129;DHT22;553;51.038;7.216;2023-03-23T05:08:57;11.30;99.90
1129;DHT22;553;51.038;7.216;2023-03-23T05:11:23;11.30;99.90
1129;DHT22;553;51.038;7.216;2023-03-23T05:13:49;11.30;99.90
1129;DHT22;553;51.038;7.216;2023-03-23T05:16:16;11.30;99.90
1129;DHT22;553;51.038;7.216;2023-03-23T05:18:42;11.40;99.90
1129;DHT22;553;51.038;7.216;2023-03-23T05:21:12;11.40;99.90
1129;DHT22;553;51.038;7.216;2023-03-23T05:23:42;11.40;99.90
1129;DHT22;553;51.038;7.216;2023-03-23T05:26:17;11.40;99.90
1129;DHT22;553;51.038;7.216;2023-03-23T05:28:43;11.30;99.90
1129;DHT22;553;51.038;7.216;2023-03-23T05:31:21;11.20;99.90
1129;DHT22;553;51.038;7.216;2023-03-23T05:33:48;11.30;99.90
1129;DHT22;553;51.038;7.216;2023-03-23T05:36:40;11.40;99.90
1129;DHT22;553;51.038;7.216;2023-03-23T05:39:25;11.30;99.90
1129;DHT22;553;51.038;7.216;2023-03-23T05:42:15;11.40;99.90
1129;DHT22;553;51.038;7.216;2023-03-23T05:44:49;11.40;99.90
1129;DHT22;553;51.038;7.216;2023-03-23T05:47:16;11.40;99.90
1129;DHT22;553;51.038;7.216;2023-03-23T05:49:49;11.50;99.90
1129;DHT22;553;51.038;7.216;2023-03-23T05:52:18;11.60;99.90
1129;DHT22;553;51.038;7.216;2023-03-23T05:54:44;11.60;99.90
1129;DHT22;553;51.038;7.216;2023-03-23T05:57:11;11.60;99.90
1129;DHT22;553;51.038;7.216;2023-03-23T05:59:44;11.50;99.90
1129;DHT22;553;51.038;7.216;2023-03-23T06:02:15;11.60;99.90
1129;DHT22;553;51.038;7.216;2023-03-23T06:04:41;11.60;99.90
1129;DHT22;553;51.038;7.216;2023-03-23T06:07:14;11.70;99.90
1129;DHT22;553;51.038;7.216;2023-03-23T06:09:47;11.70;99.90
1129;DHT22;553;51.038;7.216;2023-03-23T06:12:22;11.70;99.90
1129;DHT22;553;51.038;7.216;2023-03-23T06:15:09;11.70;99.90
1129;DHT22;553;51.038;7.216;2023-03-23T06:17:54;11.70;99.90
1129;DHT22;553;51.038;7.216;2023-03-23T06:20:25;11.70;99.90
1129;DHT22;553;51.038;7.216;2023-03-23T06:22:52;11.80;99.90
1129;DHT22;553;51.038;7.216;2023-03-23T06:25:26;11.80;99.90
1129;DHT22;553;51.038;7.216;2023-03-23T06:27:52;11.80;99.90
1129;DHT22;553;51.038;7.216;2023-03-23T06:30:18;11.80;99.90
1129;DHT22;553;51.038;7.216;2023-03-23T06:32:44;11.90;99.90
1129;DHT22;553;51.038;7.216;2023-03-23T06:35:14;12.00;99.90
1129;DHT22;553;51.038;7.216;2023-03-23T06:38:14;12.00;99.90
1129;DHT22;553;51.038;7.216;2023-03-23T06:40:51;12.00;99.90
1129;DHT22;553;51.038;7.216;2023-03-23T06:43:16;12.10;99.90
1129;DHT22;553;51.038;7.216;2023-03-23T06:46:07;12.10;99.90
1129;DHT22;553;51.038;7.216;2023-03-23T06:48:39;12.00;99.90
1129;DHT22;553;51.038;7.216;2023-03-23T06:51:06;12.10;99.90
1129;DHT22;553;51.038;7.216;2023-03-23T06:53:33;12.20;99.90
1129;DHT22;553;51.038;7.216;2023-03-23T06:55:59;12.20;99.90
1129;DHT22;553;51.038;7.216;2023-03-23T06:58:26;12.20;99.90
1129;DHT22;553;51.038;7.216;2023-03-23T07:00:56;12.30;99.90
1129;DHT22;553;51.038;7.216;2023-03-23T07:03:28;12.30;99.90
1129;DHT22;553;51.038;7.216;2023-03-23T07:05:54;12.40;99.90
1129;DHT22;553;51.038;7.216;2023-03-23T07:08:22;12.40;99.90
1129;DHT22;553;51.038;7.216;2023-03-23T07:10:54;12.30;99.90
1129;DHT22;553;51.038;7.216;2023-03-23T07:13:24;12.30;99.90
1129;DHT22;553;51.038;7.216;2023-03-23T07:15:54;12.30;99.90
1129;DHT22;553;51.038;7.216;2023-03-23T07:18:21;12.40;99.90
1129;DHT22;553;51.038;7.216;2023-03-23T07:20:50;12.30;99.90
1129;DHT22;553;51.038;7.216;2023-03-23T07:23:17;12.40;99.90
1129;DHT22;553;51.038;7.216;2023-03-23T07:25:48;12.40;99.90
1129;DHT22;553;51.038;7.216;2023-03-23T07:28:20;12.40;99.90
1129;DHT22;553;51.038;7.216;2023-03-23T07:30:46;12.40;99.90
1129;DHT22;553;51.038;7.216;2023-03-23T07:33:12;12.50;99.90
1129;DHT22;553;51.038;7.216;2023-03-23T07:35:39;12.50;99.90
1129;DHT22;553;51.038;7.216;2023-03-23T07:38:10;12.60;99.90
1129;DHT22;553;51.038;7.216;2023-03-23T07:40:37;12.80;99.90
1129;DHT22;553;51.038;7.216;2023-03-23T07:43:21;13.00;99.90
1129;DHT22;553;51.038;7.216;2023-03-23T07:46:05;12.80;99.90
1129;DHT22;553;51.038;7.216;2023-03-23T07:48:57;12.70;99.90
1129;DHT22;553;51.038;7.216;2023-03-23T07:51:31;12.70;99.90
1129;DHT22;553;51.038;7.216;2023-03-23T07:53:57;12.80;99.90
1129;DHT22;553;51.038;7.216;2023-03-23T07:56:43;12.70;99.90
1129;DHT22;553;51.038;7.216;2023-03-23T07:59:17;12.70;99.90
1129;DHT22;553;51.038;7.216;2023-03-23T08:01:43;12.70;99.90
1129;DHT22;553;51.038;7.216;2023-03-23T08:04:32;12.70;99.90
1129;DHT22;553;51.038;7.216;2023-03-23T08:07:18;12.70;99.90
1129;DHT22;553;51.038;7.216;2023-03-23T08:10:02;12.80;99.90
1129;DHT22;553;51.038;7.216;2023-03-23T08:12:46;12.80;99.90
1129;DHT22;553;51.038;7.216;2023-03-23T08:15:28;12.80;99.90
1129;DHT22;553;51.038;7.216;2023-03-23T08:18:06;12.90;99.90
1129;DHT22;553;51.038;7.216;2023-03-23T08:21:07;13.00;99.70
1129;DHT22;553;51.038;7.216;2023-03-23T08:24:05;13.00;99.40
1129;DHT22;553;51.038;7.216;2023-03-23T08:26:54;13.10;99.80
1129;DHT22;553;51.038;7.216;2023-03-23T08:29:45;13.00;99.80
1129;DHT22;553;51.038;7.216;2023-03-23T08:32:40;13.10;99.00
1129;DHT22;553;51.038;7.216;2023-03-23T08:35:33;13.10;99.80
1129;DHT22;553;51.038;7.216;2023-03-23T08:38:17;13.10;99.60
1129;DHT22;553;51.038;7.216;2023-03-23T08:41:09;13.20;99.20
1129;DHT22;553;51.038;7.216;2023-03-23T08:44:13;13.30;99.10
1129;DHT22;553;51.038;7.216;2023-03-23T08:46:59;13.30;98.00
1129;DHT22;553;51.038;7.216;2023-03-23T08:49:53;13.30;98.80
1129;DHT22;553;51.038;7.216;2023-03-23T08:52:38;13.30;98.80
1129;DHT22;553;51.038;7.216;2023-03-23T08:55:20;13.30;98.30
1129;DHT22;553;51.038;7.216;2023-03-23T08:58:13;13.30;97.60
1129;DHT22;553;51.038;7.216;2023-03-23T09:01:08;13.30;97.80
1129;DHT22;553;51.038;7.216;2023-03-23T09:03:44;13.40;97.40
1129;DHT22;553;51.038;7.216;2023-03-23T09:06:32;13.40;97.30
1129;DHT22;553;51.038;7.216;2023-03-23T09:08:58;13.40;97.70
1129;DHT22;553;51.038;7.216;2023-03-23T09:11:26;13.40;95.90
1129;DHT22;553;51.038;7.216;2023-03-23T09:13:52;13.50;96.90
1129;DHT22;553;51.038;7.216;2023-03-23T09:16:17;13.50;96.90
1129;DHT22;553;51.038;7.216;2023-03-23T09:18:43;13.50;97.10
1129;DHT22;553;51.038;7.216;2023-03-23T09:21:09;13.50;96.70
1129;DHT22;553;51.038;7.216;2023-03-23T09:23:35;13.50;96.90
1129;DHT22;553;51.038;7.216;2023-03-23T09:26:02;13.60;96.80
1129;DHT22;553;51.038;7.216;2023-03-23T09:28:28;13.50;96.90
1129;DHT22;553;51.038;7.216;2023-03-23T09:30:55;13.50;97.20
1129;DHT22;553;51.038;7.216;2023-03-23T09:33:23;13.50;98.00
1129;DHT22;553;51.038;7.216;2023-03-23T09:35:49;13.50;97.40
1129;DHT22;553;51.038;7.216;2023-03-23T09:38:15;13.50;97.30
1129;DHT22;553;51.038;7.216;2023-03-23T09:41:15;13.50;97.40
1129;DHT22;553;51.038;7.216;2023-03-23T09:49:19;13.70;95.10
1129;DHT22;553;51.038;7.216;2023-03-23T09:52:16;13.70;95.50
1129;DHT22;553;51.038;7.216;2023-03-23T09:54:50;13.90;95.70
1129;DHT22;553;51.038;7.216;2023-03-23T09:57:33;13.90;94.20
1129;DHT22;553;51.038;7.216;2023-03-23T10:03:24;13.80;95.20
1129;DHT22;553;51.038;7.216;2023-03-23T10:05:52;13.80;94.50
1129;DHT22;553;51.038;7.216;2023-03-23T10:08:24;13.70;94.30
1129;DHT22;553;51.038;7.216;2023-03-23T10:16:36;13.70;93.20
1129;DHT22;553;51.038;7.216;2023-03-23T10:19:20;13.70;92.90
1129;DHT22;553;51.038;7.216;2023-03-23T10:21:52;13.70;93.10
1129;DHT22;553;51.038;7.216;2023-03-23T10:24:22;13.70;93.30
1129;DHT22;553;51.038;7.216;2023-03-23T10:27:24;13.70;92.80
1129;DHT22;553;51.038;7.216;2023-03-23T10:30:03;13.70;92.40
1129;DHT22;553;51.038;7.216;2023-03-23T10:33:00;13.70;92.60
1129;DHT22;553;51.038;7.216;2023-03-23T10:35:38;13.70;92.60
1129;DHT22;553;51.038;7.216;2023-03-23T10:38:23;13.70;93.10
1129;DHT22;553;51.038;7.216;2023-03-23T10:41:04;13.70;93.70
1129;DHT22;553;51.038;7.216;2023-03-23T10:43:32;13.70;93.90
1129;DHT22;553;51.038;7.216;2023-03-23T10:48:51;13.80;94.80
1129;DHT22;553;51.038;7.216;2023-03-23T10:51:22;13.80;95.50
1129;DHT22;553;51.038;7.216;2023-03-23T10:53:56;13.90;96.00
1129;DHT22;553;51.038;7.216;2023-03-23T10:56:35;13.80;97.00
1129;DHT22;553;51.038;7.216;2023-03-23T10:59:14;13.70;97.30
1129;DHT22;553;51.038;7.216;2023-03-23T11:01:43;13.70;98.30
1129;DHT22;553;51.038;7.216;2023-03-23T11:04:13;13.60;99.00
1129;DHT22;553;51.038;7.216;2023-03-23T11:06:45;13.60;99.30
1129;DHT22;553;51.038;7.216;2023-03-23T11:09:19;13.50;99.90
1129;DHT22;553;51.038;7.216;2023-03-23T11:11:51;13.50;99.90
1129;DHT22;553;51.038;7.216;2023-03-23T11:14:19;13.50;99.90
1129;DHT22;553;51.038;7.216;2023-03-23T11:16:57;13.40;99.90
1129;DHT22;553;51.038;7.216;2023-03-23T11:21:51;13.40;99.90
1129;DHT22;553;51.038;7.216;2023-03-23T11:24:18;13.30;99.90
1129;DHT22;553;51.038;7.216;2023-03-23T11:26:45;13.40;99.90
1129;DHT22;553;51.038;7.216;2023-03-23T11:29:22;13.40;99.90
1129;DHT22;553;51.038;7.216;2023-03-23T11:32:02;13.40;99.90
1129;DHT22;553;51.038;7.216;2023-03-23T11:34:33;13.50;99.90
1129;DHT22;553;51.038;7.216;2023-03-23T11:37:07;13.50;99.90
1129;DHT22;553;51.038;7.216;2023-03-23T11:39:47;13.50;99.90
1129;DHT22;553;51.038;7.216;2023-03-23T11:42:19;13.50;99.90
1129;DHT22;553;51.038;7.216;2023-03-23T11:44:46;13.60;99.90
1129;DHT22;553;51.038;7.216;2023-03-23T11:55:53;13.70;99.90
1129;DHT22;553;51.038;7.216;2023-03-23T11:58:21;13.70;99.90
1129;DHT22;553;51.038;7.216;2023-03-23T12:09:47;13.70;99.90
1129;DHT22;553;51.038;7.216;2023-03-23T12:15:15;13.50;99.90
1129;DHT22;553;51.038;7.216;2023-03-23T12:21:20;13.40;99.90
1129;DHT22;553;51.038;7.216;2023-03-23T12:27:17;13.20;99.90
1129;DHT22;553;51.038;7.216;2023-03-23T12:38:42;13.30;99.90
1129;DHT22;553;51.038;7.216;2023-03-23T12:41:20;13.20;99.90
1129;DHT22;553;51.038;7.216;2023-03-23T12:44:02;13.10;99.90
1129;DHT22;553;51.038;7.216;2023-03-23T12:47:07;13.20;99.90
1129;DHT22;553;51.038;7.216;2023-03-23T12:49:46;13.30;99.90
1129;DHT22;553;51.038;7.216;2023-03-23T12:52:42;13.40;99.90
1129;DHT22;553;51.038;7.216;2023-03-23T12:55:16;13.50;99.90
1129;DHT22;553;51.038;7.216;2023-03-23T12:57:59;13.50;99.90
1129;DHT22;553;51.038;7.216;2023-03-23T13:00:31;13.60;99.90
1129;DHT22;553;51.038;7.216;2023-03-23T13:03:23;13.60;99.90
1129;DHT22;553;51.038;7.216;2023-03-23T13:05:57;13.70;99.90
1129;DHT22;553;51.038;7.216;2023-03-23T13:08:31;13.70;99.90
1129;DHT22;553;51.038;7.216;2023-03-23T13:11:12;13.80;99.90
1129;DHT22;553;51.038;7.216;2023-03-23T13:13:52;13.80;99.90
1129;DHT22;553;51.038;7.216;2023-03-23T13:19:14;13.80;99.90
1129;DHT22;553;51.038;7.216;2023-03-23T13:22:21;13.80;99.90
1129;DHT22;553;51.038;7.216;2023-03-23T13:24:54;13.80;99.90
1129;DHT22;553;51.038;7.216;2023-03-23T13:27:28;13.80;99.90
1129;DHT22;553;51.038;7.216;2023-03-23T13:29:58;14.60;98.50
1129;DHT22;553;51.038;7.216;2023-03-23T13:32:35;14.80;97.90
1129;DHT22;553;51.038;7.216;2023-03-23T13:35:11;14.60;97.70
1129;DHT22;553;51.038;7.216;2023-03-23T13:37:44;14.40;98.60
1129;DHT22;553;51.038;7.216;2023-03-23T13:42:51;14.20;98.70
1129;DHT22;553;51.038;7.216;2023-03-23T13:48:02;14.20;99.90
1129;DHT22;553;51.038;7.216;2023-03-23T13:50:30;14.10;99.40
1129;DHT22;553;51.038;7.216;2023-03-23T13:53:01;14.10;99.40
1129;DHT22;553;51.038;7.216;2023-03-23T14:03:24;14.30;99.20
1129;DHT22;553;51.038;7.216;2023-03-23T14:10:55;13.80;99.90
1129;DHT22;553;51.038;7.216;2023-03-23T14:13:44;13.70;99.90
1129;DHT22;553;51.038;7.216;2023-03-23T14:16:26;13.60;99.90
1129;DHT22;553;51.038;7.216;2023-03-23T14:18:58;13.50;99.90
1129;DHT22;553;51.038;7.216;2023-03-23T14:24:22;13.60;99.90
1129;DHT22;553;51.038;7.216;2023-03-23T14:26:49;13.60;99.90
1129;DHT22;553;51.038;7.216;2023-03-23T14:29:18;13.70;99.90
1129;DHT22;553;51.038;7.216;2023-03-23T14:31:53;13.80;99.90
1129;DHT22;553;51.038;7.216;2023-03-23T14:34:20;13.80;99.90
1129;DHT22;553;51.038;7.216;2023-03-23T14:36:47;13.90;99.90
1129;DHT22;553;51.038;7.216;2023-03-23T14:39:30;13.90;99.90
1129;DHT22;553;51.038;7.216;2023-03-23T14:42:01;14.00;99.90
1129;DHT22;553;51.038;7.216;2023-03-23T14:44:39;14.10;99.90
1129;DHT22;553;51.038;7.216;2023-03-23T14:47:10;14.00;99.90
1129;DHT22;553;51.038;7.216;2023-03-23T14:49:41;14.20;99.90
1129;DHT22;553;51.038;7.216;2023-03-23T14:52:17;14.20;99.90
1129;DHT22;553;51.038;7.216;2023-03-23T14:54:44;14.20;99.90
1129;DHT22;553;51.038;7.216;2023-03-23T14:57:18;14.20;99.90
1129;DHT22;553;51.038;7.216;2023-03-23T14:59:47;14.30;99.90
1129;DHT22;553;51.038;7.216;2023-03-23T15:02:25;14.40;99.90
1129;DHT22;553;51.038;7.216;2023-03-23T15:04:57;14.40;99.90
1129;DHT22;553;51.038;7.216;2023-03-23T15:07:29;14.40;99.90
1129;DHT22;553;51.038;7.216;2023-03-23T15:09:55;14.30;99.90
1129;DHT22;553;51.038;7.216;2023-03-23T15:12:26;14.30;99.90
1129;DHT22;553;51.038;7.216;2023-03-23T15:14:58;14.30;99.90
1129;DHT22;553;51.038;7.216;2023-03-23T15:17:27;14.20;99.90
1129;DHT22;553;51.038;7.216;2023-03-23T15:19:55;14.10;99.90
1129;DHT22;553;51.038;7.216;2023-03-23T15:22:31;13.90;99.90
1129;DHT22;553;51.038;7.216;2023-03-23T15:27:42;13.80;99.90
1129;DHT22;553;51.038;7.216;2023-03-23T15:32:51;13.90;99.90
1129;DHT22;553;51.038;7.216;2023-03-23T15:35:23;13.90;99.90
1129;DHT22;553;51.038;7.216;2023-03-23T15:37:53;13.90;99.90
1129;DHT22;553;51.038;7.216;2023-03-23T15:40:24;13.80;99.90
1129;DHT22;553;51.038;7.216;2023-03-23T15:43:14;13.90;99.90
1129;DHT22;553;51.038;7.216;2023-03-23T15:45:59;13.90;99.90
1129;DHT22;553;51.038;7.216;2023-03-23T15:48:33;14.00;99.90
1129;DHT22;553;51.038;7.216;2023-03-23T15:51:10;14.10;99.90
1129;DHT22;553;51.038;7.216;2023-03-23T15:53:37;14.00;99.90
1129;DHT22;553;51.038;7.216;2023-03-23T15:56:07;14.20;99.90
1129;DHT22;553;51.038;7.216;2023-03-23T15:58:35;14.00;99.90
1129;DHT22;553;51.038;7.216;2023-03-23T16:01:04;14.10;99.90
1129;DHT22;553;51.038;7.216;2023-03-23T16:03:54;14.20;99.90
1129;DHT22;553;51.038;7.216;2023-03-23T16:06:24;14.20;99.90
1129;DHT22;553;51.038;7.216;2023-03-23T16:08:53;14.20;99.90
1129;DHT22;553;51.038;7.216;2023-03-23T16:11:23;14.10;99.90
1129;DHT22;553;51.038;7.216;2023-03-23T16:13:50;14.20;99.90
1129;DHT22;553;51.038;7.216;2023-03-23T16:16:41;14.20;99.90
1129;DHT22;553;51.038;7.216;2023-03-23T16:19:05;14.20;99.60
1129;DHT22;553;51.038;7.216;2023-03-23T16:21:33;14.20;99.00
1129;DHT22;553;51.038;7.216;2023-03-23T16:23:59;14.20;98.80
1129;DHT22;553;51.038;7.216;2023-03-23T16:26:27;14.30;98.80
1129;DHT22;553;51.038;7.216;2023-03-23T16:28:54;14.30;98.20
1129;DHT22;553;51.038;7.216;2023-03-23T16:31:35;14.20;97.80
1129;DHT22;553;51.038;7.216;2023-03-23T16:34:03;14.30;96.70
1129;DHT22;553;51.038;7.216;2023-03-23T16:36:29;14.30;96.70
1129;DHT22;553;51.038;7.216;2023-03-23T16:38:56;14.30;96.00
1129;DHT22;553;51.038;7.216;2023-03-23T16:41:23;14.30;96.30
1129;DHT22;553;51.038;7.216;2023-03-23T16:43:49;14.30;96.60
1129;DHT22;553;51.038;7.216;2023-03-23T16:46:16;14.20;96.20
1129;DHT22;553;51.038;7.216;2023-03-23T16:48:43;14.30;95.60
1129;DHT22;553;51.038;7.216;2023-03-23T16:51:10;14.30;95.40
1129;DHT22;553;51.038;7.216;2023-03-23T16:53:37;14.30;94.90
1129;DHT22;553;51.038;7.216;2023-03-23T16:56:04;14.30;95.30
1129;DHT22;553;51.038;7.216;2023-03-23T16:58:30;14.30;95.60
1129;DHT22;553;51.038;7.216;2023-03-23T17:00:57;14.30;95.60
1129;DHT22;553;51.038;7.216;2023-03-23T17:03:24;14.20;95.60
1129;DHT22;553;51.038;7.216;2023-03-23T17:05:51;14.30;95.30
1129;DHT22;553;51.038;7.216;2023-03-23T17:08:19;14.20;95.10
1129;DHT22;553;51.038;7.216;2023-03-23T17:10:46;14.30;94.80
1129;DHT22;553;51.038;7.216;2023-03-23T17:13:14;14.20;94.90
1129;DHT22;553;51.038;7.216;2023-03-23T17:15:42;14.30;94.10
1129;DHT22;553;51.038;7.216;2023-03-23T17:18:13;14.20;93.70
1129;DHT22;553;51.038;7.216;2023-03-23T17:20:41;14.20;93.80
1129;DHT22;553;51.038;7.216;2023-03-23T17:23:08;14.20;94.50
1129;DHT22;553;51.038;7.216;2023-03-23T17:25:35;14.20;94.70
1129;DHT22;553;51.038;7.216;2023-03-23T17:28:02;14.20;94.30
1129;DHT22;553;51.038;7.216;2023-03-23T17:30:31;14.20;94.20
1129;DHT22;553;51.038;7.216;2023-03-23T17:32:58;14.20;94.00
1129;DHT22;553;51.038;7.216;2023-03-23T17:35:25;14.20;94.50
1129;DHT22;553;51.038;7.216;2023-03-23T17:37:51;14.20;94.00
1129;DHT22;553;51.038;7.216;2023-03-23T17:40:18;14.20;93.80
1129;DHT22;553;51.038;7.216;2023-03-23T17:42:44;14.20;94.00
1129;DHT22;553;51.038;7.216;2023-03-23T17:45:11;14.10;93.90
1129;DHT22;553;51.038;7.216;2023-03-23T17:47:38;14.10;94.50
1129;DHT22;553;51.038;7.216;2023-03-23T17:50:06;14.00;94.50
1129;DHT22;553;51.038;7.216;2023-03-23T17:52:40;13.90;94.20
1129;DHT22;553;51.038;7.216;2023-03-23T17:55:09;13.90;93.90
1129;DHT22;553;51.038;7.216;2023-03-23T17:57:35;13.90;94.30
1129;DHT22;553;51.038;7.216;2023-03-23T18:00:04;13.70;94.20
1129;DHT22;553;51.038;7.216;2023-03-23T18:02:34;13.70;94.30
1129;DHT22;553;51.038;7.216;2023-03-23T18:05:01;13.70;94.40
1129;DHT22;553;51.038;7.216;2023-03-23T18:07:28;13.70;94.50
1129;DHT22;553;51.038;7.216;2023-03-23T18:09:59;13.70;94.50
1129;DHT22;553;51.038;7.216;2023-03-23T18:12:26;13.70;94.30
1129;DHT22;553;51.038;7.216;2023-03-23T18:14:57;13.70;94.30
1129;DHT22;553;51.038;7.216;2023-03-23T18:17:24;13.70;95.10
1129;DHT22;553;51.038;7.216;2023-03-23T18:19:52;13.60;95.00
1129;DHT22;553;51.038;7.216;2023-03-23T18:22:19;13.60;94.80
1129;DHT22;553;51.038;7.216;2023-03-23T18:24:46;13.60;95.00
1129;DHT22;553;51.038;7.216;2023-03-23T18:27:13;13.50;95.20
1129;DHT22;553;51.038;7.216;2023-03-23T18:29:40;13.40;95.40
1129;DHT22;553;51.038;7.216;2023-03-23T18:32:07;13.40;95.90
1129;DHT22;553;51.038;7.216;2023-03-23T18:34:34;13.30;95.80
1129;DHT22;553;51.038;7.216;2023-03-23T18:37:03;13.30;95.80